sensor_id;sensor_type;location;lat;lon;timestamp;pressure;altitude;pressure_sealevel;temperature;humidity
44659;BME280;30378;50.186;8.644;2022-07-23T00:00:18;100186.66;;;19.66;100.00
44659;BME280;30378;50.186;8.644;2022-07-23T00:02:45;100175.50;;;19.66;100.00
44659;BME280;30378;50.186;8.644;2022-07-23T00:05:13;100171.81;;;19.61;100.00
44659;BME280;30378;50.186;8.644;2022-07-23T00:07:40;100170.56;;;19.59;100.00
44659;BME280;30378;50.186;8.644;2022-07-23T00:10:07;100157.34;;;19.56;100.00
44659;BME280;30378;50.186;8.644;2022-07-23T00:12:35;100146.84;;;19.49;100.00
44659;BME280;30378;50.186;8.644;2022-07-23T00:15:03;100144.22;;;19.40;100.00
44659;BME280;30378;50.186;8.644;2022-07-23T00:17:30;100136.88;;;19.32;100.00
44659;BME280;30378;50.186;8.644;2022-07-23T00:19:57;100141.91;;;19.27;100.00
44659;BME280;30378;50.186;8.644;2022-07-23T00:22:24;100147.03;;;19.25;100.00
44659;BME280;30378;50.186;8.644;2022-07-23T00:24:52;100144.16;;;19.21;100.00
44659;BME280;30378;50.186;8.644;2022-07-23T00:27:35;100139.56;;;19.13;100.00
44659;BME280;30378;50.186;8.644;2022-07-23T00:30:03;100146.38;;;19.15;100.00
44659;BME280;30378;50.186;8.644;2022-07-23T00:32:30;100161.13;;;19.16;100.00
44659;BME280;30378;50.186;8.644;2022-07-23T00:35:21;100170.66;;;19.15;100.00
44659;BME280;30378;50.186;8.644;2022-07-23T00:37:49;100174.97;;;19.12;100.00
44659;BME280;30378;50.186;8.644;2022-07-23T00:40:16;100166.44;;;19.21;100.00
44659;BME280;30378;50.186;8.644;2022-07-23T00:42:43;100172.72;;;19.34;100.00
44659;BME280;30378;50.186;8.644;2022-07-23T00:45:10;100177.97;;;19.35;100.00
44659;BME280;30378;50.186;8.644;2022-07-23T00:47:37;100168.41;;;19.36;100.00
44659;BME280;30378;50.186;8.644;2022-07-23T00:50:07;100159.25;;;19.36;100.00
44659;BME280;30378;50.186;8.644;2022-07-23T00:52:36;100158.16;;;19.25;100.00
44659;BME280;30378;50.186;8.644;2022-07-23T00:55:05;100154.75;;;19.15;100.00
44659;BME280;30378;50.186;8.644;2022-07-23T00:57:33;100149.56;;;19.14;100.00
44659;BME280;30378;50.186;8.644;2022-07-23T01:00:01;100152.25;;;19.10;100.00
44659;BME280;30378;50.186;8.644;2022-07-23T01:02:28;100162.94;;;19.08;100.00
44659;BME280;30378;50.186;8.644;2022-07-23T01:04:55;100163.28;;;19.07;100.00
44659;BME280;30378;50.186;8.644;2022-07-23T01:07:23;100154.66;;;18.96;100.00
44659;BME280;30378;50.186;8.644;2022-07-23T01:09:54;100156.06;;;18.90;100.00
44659;BME280;30378;50.186;8.644;2022-07-23T01:12:21;100160.03;;;18.89;100.00
44659;BME280;30378;50.186;8.644;2022-07-23T01:14:59;100150.66;;;18.81;100.00
44659;BME280;30378;50.186;8.644;2022-07-23T01:17:28;100148.59;;;18.78;100.00
44659;BME280;30378;50.186;8.644;2022-07-23T01:19:55;100147.31;;;18.75;100.00
44659;BME280;30378;50.186;8.644;2022-07-23T01:24:50;100168.56;;;18.68;100.00
44659;BME280;30378;50.186;8.644;2022-07-23T01:27:23;100161.03;;;18.68;100.00
44659;BME280;30378;50.186;8.644;2022-07-23T01:29:57;100164.72;;;18.72;100.00
44659;BME280;30378;50.186;8.644;2022-07-23T01:32:26;100166.34;;;18.73;100.00
44659;BME280;30378;50.186;8.644;2022-07-23T01:34:54;100170.38;;;18.76;100.00
44659;BME280;30378;50.186;8.644;2022-07-23T01:37:21;100176.19;;;18.83;100.00
44659;BME280;30378;50.186;8.644;2022-07-23T01:39:48;100185.88;;;18.89;100.00
44659;BME280;30378;50.186;8.644;2022-07-23T01:42:16;100188.31;;;18.91;100.00
44659;BME280;30378;50.186;8.644;2022-07-23T01:44:43;100200.00;;;18.96;100.00
44659;BME280;30378;50.186;8.644;2022-07-23T01:47:17;100184.00;;;18.93;100.00
44659;BME280;30378;50.186;8.644;2022-07-23T01:49:47;100171.50;;;18.87;100.00
44659;BME280;30378;50.186;8.644;2022-07-23T01:52:36;100173.50;;;18.87;100.00
44659;BME280;30378;50.186;8.644;2022-07-23T01:55:04;100153.66;;;18.88;100.00
44659;BME280;30378;50.186;8.644;2022-07-23T01:57:33;100119.16;;;18.93;100.00
44659;BME280;30378;50.186;8.644;2022-07-23T02:00:02;100119.72;;;18.98;100.00
44659;BME280;30378;50.186;8.644;2022-07-23T02:02:39;100148.72;;;18.97;100.00
44659;BME280;30378;50.186;8.644;2022-07-23T02:05:06;100162.56;;;18.94;100.00
44659;BME280;30378;50.186;8.644;2022-07-23T02:07:34;100159.66;;;18.90;100.00
44659;BME280;30378;50.186;8.644;2022-07-23T02:10:01;100157.94;;;18.86;100.00
44659;BME280;30378;50.186;8.644;2022-07-23T02:12:28;100166.56;;;18.80;100.00
44659;BME280;30378;50.186;8.644;2022-07-23T02:14:55;100176.06;;;18.79;100.00
44659;BME280;30378;50.186;8.644;2022-07-23T02:17:25;100193.81;;;18.75;100.00
44659;BME280;30378;50.186;8.644;2022-07-23T02:19:52;100201.25;;;18.71;100.00
44659;BME280;30378;50.186;8.644;2022-07-23T02:22:21;100202.69;;;18.65;100.00
44659;BME280;30378;50.186;8.644;2022-07-23T02:24:48;100201.41;;;18.62;100.00
44659;BME280;30378;50.186;8.644;2022-07-23T02:27:15;100197.41;;;18.47;100.00
44659;BME280;30378;50.186;8.644;2022-07-23T02:29:43;100189.22;;;18.38;100.00
44659;BME280;30378;50.186;8.644;2022-07-23T02:32:13;100196.44;;;18.27;100.00
44659;BME280;30378;50.186;8.644;2022-07-23T02:34:40;100193.75;;;18.18;100.00
44659;BME280;30378;50.186;8.644;2022-07-23T02:37:07;100202.72;;;18.12;100.00
44659;BME280;30378;50.186;8.644;2022-07-23T02:39:36;100219.38;;;18.12;100.00
44659;BME280;30378;50.186;8.644;2022-07-23T02:42:03;100213.59;;;18.17;100.00
44659;BME280;30378;50.186;8.644;2022-07-23T02:44:32;100206.28;;;18.12;100.00
44659;BME280;30378;50.186;8.644;2022-07-23T02:47:00;100213.38;;;18.10;100.00
44659;BME280;30378;50.186;8.644;2022-07-23T02:49:27;100212.19;;;18.11;100.00
44659;BME280;30378;50.186;8.644;2022-07-23T02:51:54;100218.25;;;18.13;100.00
44659;BME280;30378;50.186;8.644;2022-07-23T02:54:21;100223.31;;;18.11;100.00
44659;BME280;30378;50.186;8.644;2022-07-23T02:56:48;100229.00;;;18.14;100.00
44659;BME280;30378;50.186;8.644;2022-07-23T02:59:17;100214.50;;;18.09;100.00
44659;BME280;30378;50.186;8.644;2022-07-23T03:01:46;100220.00;;;18.05;100.00
44659;BME280;30378;50.186;8.644;2022-07-23T03:04:13;100231.34;;;18.00;100.00
44659;BME280;30378;50.186;8.644;2022-07-23T03:06:42;100231.44;;;18.03;100.00
44659;BME280;30378;50.186;8.644;2022-07-23T03:09:09;100240.47;;;18.00;100.00
44659;BME280;30378;50.186;8.644;2022-07-23T03:11:38;100219.63;;;18.07;100.00
44659;BME280;30378;50.186;8.644;2022-07-23T03:14:05;100207.81;;;18.10;100.00
44659;BME280;30378;50.186;8.644;2022-07-23T03:16:35;100204.34;;;18.13;100.00
44659;BME280;30378;50.186;8.644;2022-07-23T03:19:02;100200.84;;;18.16;100.00
44659;BME280;30378;50.186;8.644;2022-07-23T03:21:29;100194.69;;;18.22;100.00
44659;BME280;30378;50.186;8.644;2022-07-23T03:23:56;100200.63;;;18.21;100.00
44659;BME280;30378;50.186;8.644;2022-07-23T03:26:23;100210.81;;;18.17;100.00
44659;BME280;30378;50.186;8.644;2022-07-23T03:28:52;100223.31;;;18.11;100.00
44659;BME280;30378;50.186;8.644;2022-07-23T03:31:19;100233.97;;;18.09;100.00
44659;BME280;30378;50.186;8.644;2022-07-23T03:33:46;100215.13;;;18.02;100.00
44659;BME280;30378;50.186;8.644;2022-07-23T03:36:13;100209.22;;;18.03;100.00
44659;BME280;30378;50.186;8.644;2022-07-23T03:38:43;100210.34;;;18.02;100.00
44659;BME280;30378;50.186;8.644;2022-07-23T03:41:10;100210.00;;;18.04;100.00
44659;BME280;30378;50.186;8.644;2022-07-23T03:43:37;100221.72;;;18.10;100.00
44659;BME280;30378;50.186;8.644;2022-07-23T03:46:05;100226.47;;;18.09;100.00
44659;BME280;30378;50.186;8.644;2022-07-23T03:48:32;100237.59;;;18.09;100.00
44659;BME280;30378;50.186;8.644;2022-07-23T03:50:59;100231.19;;;18.09;100.00
44659;BME280;30378;50.186;8.644;2022-07-23T03:53:26;100240.00;;;18.11;100.00
44659;BME280;30378;50.186;8.644;2022-07-23T03:55:53;100242.44;;;18.12;100.00
44659;BME280;30378;50.186;8.644;2022-07-23T03:58:20;100241.63;;;18.12;100.00
44659;BME280;30378;50.186;8.644;2022-07-23T04:00:47;100244.88;;;18.14;100.00
44659;BME280;30378;50.186;8.644;2022-07-23T04:03:15;100239.91;;;18.19;100.00
44659;BME280;30378;50.186;8.644;2022-07-23T04:05:42;100241.03;;;18.18;100.00
44659;BME280;30378;50.186;8.644;2022-07-23T04:08:13;100260.16;;;18.20;100.00
44659;BME280;30378;50.186;8.644;2022-07-23T04:10:43;100262.94;;;18.20;100.00
44659;BME280;30378;50.186;8.644;2022-07-23T04:13:11;100260.50;;;18.18;100.00
44659;BME280;30378;50.186;8.644;2022-07-23T04:15:39;100264.13;;;18.19;100.00
44659;BME280;30378;50.186;8.644;2022-07-23T04:18:06;100267.25;;;18.17;100.00
44659;BME280;30378;50.186;8.644;2022-07-23T04:20:44;100263.19;;;18.15;100.00
44659;BME280;30378;50.186;8.644;2022-07-23T04:23:11;100255.75;;;18.07;100.00
44659;BME280;30378;50.186;8.644;2022-07-23T04:25:40;100260.19;;;18.08;100.00
44659;BME280;30378;50.186;8.644;2022-07-23T04:28:07;100256.81;;;18.02;100.00
44659;BME280;30378;50.186;8.644;2022-07-23T04:30:34;100265.97;;;18.02;100.00
44659;BME280;30378;50.186;8.644;2022-07-23T04:33:02;100264.47;;;18.05;100.00
44659;BME280;30378;50.186;8.644;2022-07-23T04:35:36;100272.00;;;18.04;100.00
44659;BME280;30378;50.186;8.644;2022-07-23T04:38:12;100267.03;;;17.98;100.00
44659;BME280;30378;50.186;8.644;2022-07-23T04:40:40;100274.44;;;18.06;100.00
44659;BME280;30378;50.186;8.644;2022-07-23T04:43:07;100277.22;;;18.06;100.00
44659;BME280;30378;50.186;8.644;2022-07-23T04:45:40;100287.19;;;18.19;100.00
44659;BME280;30378;50.186;8.644;2022-07-23T04:48:07;100292.84;;;18.35;100.00
44659;BME280;30378;50.186;8.644;2022-07-23T04:50:35;100282.13;;;18.50;100.00
44659;BME280;30378;50.186;8.644;2022-07-23T04:53:04;100286.28;;;18.80;100.00
44659;BME280;30378;50.186;8.644;2022-07-23T04:55:32;100286.69;;;18.95;100.00
44659;BME280;30378;50.186;8.644;2022-07-23T04:57:59;100293.13;;;19.27;100.00
44659;BME280;30378;50.186;8.644;2022-07-23T05:00:26;100302.03;;;19.61;100.00
44659;BME280;30378;50.186;8.644;2022-07-23T05:02:53;100307.81;;;20.00;100.00
44659;BME280;30378;50.186;8.644;2022-07-23T05:05:21;100307.28;;;20.10;100.00
44659;BME280;30378;50.186;8.644;2022-07-23T05:07:49;100311.22;;;20.25;100.00
44659;BME280;30378;50.186;8.644;2022-07-23T05:10:16;100309.97;;;19.91;100.00
44659;BME280;30378;50.186;8.644;2022-07-23T05:12:43;100316.91;;;19.97;100.00
44659;BME280;30378;50.186;8.644;2022-07-23T05:15:11;100318.19;;;19.55;100.00
44659;BME280;30378;50.186;8.644;2022-07-23T05:17:38;100319.31;;;19.38;100.00
44659;BME280;30378;50.186;8.644;2022-07-23T05:20:11;100314.84;;;19.34;100.00
44659;BME280;30378;50.186;8.644;2022-07-23T05:22:40;100315.25;;;19.20;100.00
44659;BME280;30378;50.186;8.644;2022-07-23T05:25:07;100316.97;;;18.96;100.00
44659;BME280;30378;50.186;8.644;2022-07-23T05:27:35;100322.38;;;19.05;100.00
44659;BME280;30378;50.186;8.644;2022-07-23T05:30:02;100310.13;;;19.22;100.00
44659;BME280;30378;50.186;8.644;2022-07-23T05:32:33;100314.78;;;19.18;100.00
44659;BME280;30378;50.186;8.644;2022-07-23T05:35:11;100312.53;;;19.08;100.00
44659;BME280;30378;50.186;8.644;2022-07-23T05:37:43;100305.97;;;19.16;100.00
44659;BME280;30378;50.186;8.644;2022-07-23T05:40:11;100312.56;;;19.24;100.00
44659;BME280;30378;50.186;8.644;2022-07-23T05:42:39;100310.13;;;19.22;100.00
44659;BME280;30378;50.186;8.644;2022-07-23T05:45:07;100332.09;;;19.11;100.00
44659;BME280;30378;50.186;8.644;2022-07-23T05:47:45;100327.91;;;19.17;100.00
44659;BME280;30378;50.186;8.644;2022-07-23T05:50:18;100332.25;;;19.31;100.00
44659;BME280;30378;50.186;8.644;2022-07-23T05:52:51;100330.06;;;20.48;100.00
44659;BME280;30378;50.186;8.644;2022-07-23T05:55:28;100344.41;;;22.52;100.00
44659;BME280;30378;50.186;8.644;2022-07-23T05:57:58;100352.81;;;24.21;100.00
44659;BME280;30378;50.186;8.644;2022-07-23T06:00:27;100355.19;;;25.51;94.92
44659;BME280;30378;50.186;8.644;2022-07-23T06:02:54;100365.63;;;23.40;100.00
44659;BME280;30378;50.186;8.644;2022-07-23T06:05:23;100353.75;;;22.90;100.00
44659;BME280;30378;50.186;8.644;2022-07-23T06:07:53;100351.50;;;25.37;100.00
44659;BME280;30378;50.186;8.644;2022-07-23T06:10:22;100356.59;;;24.43;97.81
44659;BME280;30378;50.186;8.644;2022-07-23T06:12:50;100349.84;;;22.98;100.00
44659;BME280;30378;50.186;8.644;2022-07-23T06:15:18;100345.63;;;22.81;100.00
44659;BME280;30378;50.186;8.644;2022-07-23T06:17:45;100354.94;;;25.01;100.00
44659;BME280;30378;50.186;8.644;2022-07-23T06:20:12;100354.47;;;26.34;92.83
44659;BME280;30378;50.186;8.644;2022-07-23T06:22:41;100363.13;;;28.03;71.20
44659;BME280;30378;50.186;8.644;2022-07-23T06:25:08;100356.94;;;29.02;62.38
44659;BME280;30378;50.186;8.644;2022-07-23T06:27:35;100363.94;;;28.90;63.11
44659;BME280;30378;50.186;8.644;2022-07-23T06:30:02;100362.06;;;29.11;56.74
44659;BME280;30378;50.186;8.644;2022-07-23T06:32:30;100368.47;;;29.80;55.40
44659;BME280;30378;50.186;8.644;2022-07-23T06:34:58;100361.00;;;29.35;55.04
44659;BME280;30378;50.186;8.644;2022-07-23T06:37:25;100368.59;;;30.23;53.01
44659;BME280;30378;50.186;8.644;2022-07-23T06:39:52;100365.03;;;29.65;47.54
44659;BME280;30378;50.186;8.644;2022-07-23T06:42:20;100358.09;;;30.91;45.49
44659;BME280;30378;50.186;8.644;2022-07-23T06:44:56;100365.28;;;30.52;52.19
44659;BME280;30378;50.186;8.644;2022-07-23T06:47:23;100370.22;;;31.12;49.99
44659;BME280;30378;50.186;8.644;2022-07-23T06:49:50;100374.81;;;31.46;46.67
44659;BME280;30378;50.186;8.644;2022-07-23T06:52:17;100366.25;;;32.02;45.86
44659;BME280;30378;50.186;8.644;2022-07-23T06:54:44;100370.81;;;31.79;46.39
44659;BME280;30378;50.186;8.644;2022-07-23T06:57:11;100376.31;;;31.87;45.47
44659;BME280;30378;50.186;8.644;2022-07-23T06:59:38;100367.34;;;30.95;45.86
44659;BME280;30378;50.186;8.644;2022-07-23T07:02:08;100369.22;;;31.78;46.00
44659;BME280;30378;50.186;8.644;2022-07-23T07:04:35;100374.75;;;31.49;43.83
44659;BME280;30378;50.186;8.644;2022-07-23T07:07:02;100373.69;;;31.39;42.68
44659;BME280;30378;50.186;8.644;2022-07-23T07:09:29;100373.31;;;30.57;43.60
44659;BME280;30378;50.186;8.644;2022-07-23T07:11:56;100371.41;;;30.00;46.94
44659;BME280;30378;50.186;8.644;2022-07-23T07:14:23;100368.22;;;30.45;45.16
44659;BME280;30378;50.186;8.644;2022-07-23T07:16:50;100373.13;;;31.85;43.26
44659;BME280;30378;50.186;8.644;2022-07-23T07:19:17;100389.63;;;33.17;38.94
44659;BME280;30378;50.186;8.644;2022-07-23T07:21:44;100387.94;;;31.76;42.01
44659;BME280;30378;50.186;8.644;2022-07-23T07:24:11;100396.34;;;27.77;46.43
44659;BME280;30378;50.186;8.644;2022-07-23T07:26:38;100398.66;;;28.49;51.88
44659;BME280;30378;50.186;8.644;2022-07-23T07:29:06;100401.38;;;30.72;46.18
44659;BME280;30378;50.186;8.644;2022-07-23T07:31:33;100403.75;;;30.77;45.30
44659;BME280;30378;50.186;8.644;2022-07-23T07:34:00;100404.88;;;29.51;46.58
44659;BME280;30378;50.186;8.644;2022-07-23T07:36:27;100413.00;;;29.11;47.67
44659;BME280;30378;50.186;8.644;2022-07-23T07:38:54;100404.69;;;30.19;47.99
44659;BME280;30378;50.186;8.644;2022-07-23T07:41:21;100405.63;;;30.83;45.56
44659;BME280;30378;50.186;8.644;2022-07-23T07:43:50;100423.31;;;30.20;46.04
44659;BME280;30378;50.186;8.644;2022-07-23T07:46:17;100423.84;;;29.50;49.53
44659;BME280;30378;50.186;8.644;2022-07-23T07:48:44;100419.09;;;30.79;46.26
44659;BME280;30378;50.186;8.644;2022-07-23T07:51:12;100433.66;;;28.10;47.43
44659;BME280;30378;50.186;8.644;2022-07-23T07:53:39;100429.59;;;29.77;47.99
44659;BME280;30378;50.186;8.644;2022-07-23T07:56:06;100426.81;;;30.28;44.71
44659;BME280;30378;50.186;8.644;2022-07-23T07:58:33;100434.38;;;30.11;44.70
44659;BME280;30378;50.186;8.644;2022-07-23T08:01:00;100430.97;;;30.94;49.09
44659;BME280;30378;50.186;8.644;2022-07-23T08:03:29;100427.19;;;32.17;43.20
44659;BME280;30378;50.186;8.644;2022-07-23T08:05:56;100424.88;;;32.12;42.07
44659;BME280;30378;50.186;8.644;2022-07-23T08:08:23;100424.63;;;31.30;42.65
44659;BME280;30378;50.186;8.644;2022-07-23T08:10:51;100431.47;;;29.57;47.13
44659;BME280;30378;50.186;8.644;2022-07-23T08:13:18;100421.13;;;31.02;43.48
44659;BME280;30378;50.186;8.644;2022-07-23T08:15:45;100425.13;;;30.81;43.84
44659;BME280;30378;50.186;8.644;2022-07-23T08:18:13;100425.47;;;31.27;49.68
44659;BME280;30378;50.186;8.644;2022-07-23T08:20:40;100428.66;;;31.69;44.50
44659;BME280;30378;50.186;8.644;2022-07-23T08:23:08;100441.31;;;29.79;47.46
44659;BME280;30378;50.186;8.644;2022-07-23T08:25:41;100444.97;;;28.10;49.89
44659;BME280;30378;50.186;8.644;2022-07-23T08:28:10;100430.72;;;29.18;54.53
44659;BME280;30378;50.186;8.644;2022-07-23T08:30:40;100432.22;;;30.19;49.10
44659;BME280;30378;50.186;8.644;2022-07-23T08:33:10;100429.94;;;31.48;48.24
44659;BME280;30378;50.186;8.644;2022-07-23T08:35:43;100428.97;;;31.15;43.07
44659;BME280;30378;50.186;8.644;2022-07-23T08:38:14;100436.84;;;29.82;50.41
44659;BME280;30378;50.186;8.644;2022-07-23T08:40:50;100438.81;;;29.85;48.05
44659;BME280;30378;50.186;8.644;2022-07-23T08:43:23;100442.69;;;28.95;53.34
44659;BME280;30378;50.186;8.644;2022-07-23T08:45:52;100441.09;;;29.94;47.96
44659;BME280;30378;50.186;8.644;2022-07-23T08:48:26;100441.19;;;31.12;45.75
44659;BME280;30378;50.186;8.644;2022-07-23T08:50:56;100444.44;;;31.54;48.62
44659;BME280;30378;50.186;8.644;2022-07-23T08:53:26;100451.44;;;32.06;46.38
44659;BME280;30378;50.186;8.644;2022-07-23T08:55:57;100450.09;;;30.67;43.98
44659;BME280;30378;50.186;8.644;2022-07-23T08:58:26;100447.72;;;29.83;45.78
44659;BME280;30378;50.186;8.644;2022-07-23T09:00:54;100446.84;;;29.90;48.18
44659;BME280;30378;50.186;8.644;2022-07-23T09:03:26;100440.16;;;30.31;47.55
44659;BME280;30378;50.186;8.644;2022-07-23T09:05:55;100438.50;;;30.81;46.75
44659;BME280;30378;50.186;8.644;2022-07-23T09:08:25;100444.25;;;30.27;47.37
44659;BME280;30378;50.186;8.644;2022-07-23T09:15:51;100450.97;;;29.51;52.57
44659;BME280;30378;50.186;8.644;2022-07-23T09:18:28;100446.13;;;28.72;48.65
44659;BME280;30378;50.186;8.644;2022-07-23T09:24:06;100443.75;;;28.11;52.43
44659;BME280;30378;50.186;8.644;2022-07-23T09:26:47;100448.50;;;28.28;52.15
44659;BME280;30378;50.186;8.644;2022-07-23T09:29:18;100440.47;;;28.72;52.78
44659;BME280;30378;50.186;8.644;2022-07-23T09:31:56;100440.31;;;28.90;51.24
44659;BME280;30378;50.186;8.644;2022-07-23T09:34:29;100435.41;;;28.53;52.72
44659;BME280;30378;50.186;8.644;2022-07-23T09:37:09;100445.59;;;27.69;51.86
44659;BME280;30378;50.186;8.644;2022-07-23T09:39:37;100439.47;;;27.85;56.55
44659;BME280;30378;50.186;8.644;2022-07-23T09:42:36;100448.19;;;27.17;60.31
44659;BME280;30378;50.186;8.644;2022-07-23T09:45:04;100455.00;;;27.23;57.69
44659;BME280;30378;50.186;8.644;2022-07-23T09:47:38;100445.41;;;28.08;58.77
44659;BME280;30378;50.186;8.644;2022-07-23T09:50:10;100450.69;;;29.00;54.72
44659;BME280;30378;50.186;8.644;2022-07-23T09:55:10;100438.84;;;29.51;50.49
44659;BME280;30378;50.186;8.644;2022-07-23T09:57:40;100447.63;;;28.84;51.91
44659;BME280;30378;50.186;8.644;2022-07-23T10:00:09;100451.84;;;29.06;58.62
44659;BME280;30378;50.186;8.644;2022-07-23T10:02:38;100452.31;;;29.01;49.43
44659;BME280;30378;50.186;8.644;2022-07-23T10:05:26;100453.72;;;28.79;47.92
44659;BME280;30378;50.186;8.644;2022-07-23T10:08:12;100442.28;;;29.35;48.04
44659;BME280;30378;50.186;8.644;2022-07-23T10:11:00;100440.09;;;30.82;52.42
44659;BME280;30378;50.186;8.644;2022-07-23T10:13:54;100452.63;;;32.41;45.19
44659;BME280;30378;50.186;8.644;2022-07-23T10:16:41;100450.31;;;33.44;41.38
44659;BME280;30378;50.186;8.644;2022-07-23T10:19:08;100449.72;;;33.07;39.78
44659;BME280;30378;50.186;8.644;2022-07-23T10:21:47;100446.63;;;32.03;38.03
44659;BME280;30378;50.186;8.644;2022-07-23T10:27:48;100441.59;;;32.43;40.55
44659;BME280;30378;50.186;8.644;2022-07-23T10:33:02;100432.03;;;29.06;46.33
44659;BME280;30378;50.186;8.644;2022-07-23T10:35:46;100431.69;;;29.73;45.53
44659;BME280;30378;50.186;8.644;2022-07-23T10:38:33;100435.47;;;30.17;44.30
44659;BME280;30378;50.186;8.644;2022-07-23T10:41:04;100428.28;;;30.13;46.51
44659;BME280;30378;50.186;8.644;2022-07-23T10:43:32;100426.78;;;31.02;44.08
44659;BME280;30378;50.186;8.644;2022-07-23T10:46:24;100437.31;;;29.77;42.84
44659;BME280;30378;50.186;8.644;2022-07-23T10:49:24;100426.56;;;30.70;46.31
44659;BME280;30378;50.186;8.644;2022-07-23T10:54:42;100425.13;;;31.25;45.89
44659;BME280;30378;50.186;8.644;2022-07-23T10:57:11;100423.00;;;31.29;42.88
44659;BME280;30378;50.186;8.644;2022-07-23T11:02:38;100429.13;;;29.17;42.91
44659;BME280;30378;50.186;8.644;2022-07-23T11:05:08;100422.56;;;29.24;43.31
44659;BME280;30378;50.186;8.644;2022-07-23T11:07:57;100418.78;;;30.97;44.71
44659;BME280;30378;50.186;8.644;2022-07-23T11:10:41;100411.22;;;31.51;42.42
44659;BME280;30378;50.186;8.644;2022-07-23T11:13:28;100421.50;;;28.20;43.24
44659;BME280;30378;50.186;8.644;2022-07-23T11:26:47;100412.34;;;31.73;42.54
44659;BME280;30378;50.186;8.644;2022-07-23T11:37:07;100402.84;;;32.33;45.42
44659;BME280;30378;50.186;8.644;2022-07-23T11:39:36;100400.25;;;33.00;41.52
44659;BME280;30378;50.186;8.644;2022-07-23T11:42:06;100404.22;;;32.74;39.10
44659;BME280;30378;50.186;8.644;2022-07-23T11:44:38;100398.28;;;32.85;39.54
44659;BME280;30378;50.186;8.644;2022-07-23T11:47:10;100391.84;;;30.62;38.98
44659;BME280;30378;50.186;8.644;2022-07-23T11:49:39;100393.16;;;29.49;41.32
44659;BME280;30378;50.186;8.644;2022-07-23T11:52:11;100395.78;;;29.32;41.79
44659;BME280;30378;50.186;8.644;2022-07-23T11:54:56;100394.03;;;29.07;42.01
44659;BME280;30378;50.186;8.644;2022-07-23T11:57:28;100391.53;;;30.33;41.74
44659;BME280;30378;50.186;8.644;2022-07-23T11:59:58;100392.41;;;29.75;41.57
44659;BME280;30378;50.186;8.644;2022-07-23T12:05:36;100376.97;;;29.18;40.95
44659;BME280;30378;50.186;8.644;2022-07-23T12:08:06;100385.63;;;29.00;42.56
44659;BME280;30378;50.186;8.644;2022-07-23T12:10:39;100378.72;;;29.70;41.45
44659;BME280;30378;50.186;8.644;2022-07-23T12:13:17;100380.88;;;30.13;44.25
44659;BME280;30378;50.186;8.644;2022-07-23T12:15:50;100376.84;;;29.87;41.90
44659;BME280;30378;50.186;8.644;2022-07-23T12:18:23;100374.84;;;30.11;41.80
44659;BME280;30378;50.186;8.644;2022-07-23T12:20:51;100373.25;;;30.61;41.64
44659;BME280;30378;50.186;8.644;2022-07-23T12:23:21;100371.19;;;31.25;38.68
44659;BME280;30378;50.186;8.644;2022-07-23T12:25:50;100376.81;;;31.65;42.12
44659;BME280;30378;50.186;8.644;2022-07-23T12:28:22;100373.50;;;30.90;39.68
44659;BME280;30378;50.186;8.644;2022-07-23T12:30:55;100374.19;;;30.74;44.29
44659;BME280;30378;50.186;8.644;2022-07-23T12:33:25;100376.81;;;31.09;42.39
44659;BME280;30378;50.186;8.644;2022-07-23T12:35:58;100371.88;;;28.16;42.48
44659;BME280;30378;50.186;8.644;2022-07-23T12:38:27;100368.06;;;27.84;43.44
44659;BME280;30378;50.186;8.644;2022-07-23T12:40:57;100373.44;;;28.69;47.69
44659;BME280;30378;50.186;8.644;2022-07-23T12:43:27;100374.94;;;28.81;44.45
44659;BME280;30378;50.186;8.644;2022-07-23T12:48:38;100379.44;;;28.75;42.76
44659;BME280;30378;50.186;8.644;2022-07-23T12:51:15;100382.81;;;29.00;42.85
44659;BME280;30378;50.186;8.644;2022-07-23T12:53:46;100380.28;;;30.02;46.11
44659;BME280;30378;50.186;8.644;2022-07-23T12:56:16;100376.81;;;31.65;42.15
44659;BME280;30378;50.186;8.644;2022-07-23T12:58:47;100377.94;;;30.20;40.21
44659;BME280;30378;50.186;8.644;2022-07-23T13:04:12;100373.88;;;29.67;42.06
44659;BME280;30378;50.186;8.644;2022-07-23T13:06:43;100374.44;;;29.85;40.77
44659;BME280;30378;50.186;8.644;2022-07-23T13:09:16;100362.19;;;30.43;42.45
44659;BME280;30378;50.186;8.644;2022-07-23T13:11:46;100367.00;;;31.30;42.94
44659;BME280;30378;50.186;8.644;2022-07-23T13:14:14;100369.78;;;32.06;43.53
44659;BME280;30378;50.186;8.644;2022-07-23T13:16:42;100368.31;;;33.09;41.64
44659;BME280;30378;50.186;8.644;2022-07-23T13:19:11;100375.44;;;33.30;39.54
44659;BME280;30378;50.186;8.644;2022-07-23T13:21:39;100369.31;;;32.40;41.97
44659;BME280;30378;50.186;8.644;2022-07-23T13:24:11;100376.31;;;32.52;42.05
44659;BME280;30378;50.186;8.644;2022-07-23T13:26:39;100377.31;;;32.62;42.69
44659;BME280;30378;50.186;8.644;2022-07-23T13:29:07;100360.72;;;33.19;40.20
44659;BME280;30378;50.186;8.644;2022-07-23T13:31:38;100372.72;;;31.10;37.97
44659;BME280;30378;50.186;8.644;2022-07-23T13:34:06;100368.38;;;32.14;43.26
44659;BME280;30378;50.186;8.644;2022-07-23T13:36:35;100370.56;;;32.56;40.12
44659;BME280;30378;50.186;8.644;2022-07-23T13:39:03;100368.31;;;33.09;40.78
44659;BME280;30378;50.186;8.644;2022-07-23T13:41:31;100365.13;;;33.49;40.23
44659;BME280;30378;50.186;8.644;2022-07-23T13:43:59;100371.56;;;32.49;36.06
44659;BME280;30378;50.186;8.644;2022-07-23T13:46:26;100360.75;;;33.45;38.85
44659;BME280;30378;50.186;8.644;2022-07-23T13:48:54;100367.28;;;32.57;38.69
44659;BME280;30378;50.186;8.644;2022-07-23T13:51:21;100366.56;;;31.88;39.74